sensor_id;sensor_type;location;lat;lon;timestamp;P1;durP1;ratioP1;P2;durP2;ratioP2
44750;SDS011;30477;48.224;11.470;2023-05-14T00:02:08;20.63;;;14.73;;
44750;SDS011;30477;48.224;11.470;2023-05-14T00:04:33;20.00;;;14.90;;
44750;SDS011;30477;48.224;11.470;2023-05-14T00:06:59;18.80;;;15.53;;
44750;SDS011;30477;48.224;11.470;2023-05-14T00:09:24;21.30;;;16.20;;
44750;SDS011;30477;48.224;11.470;2023-05-14T00:11:50;18.37;;;15.10;;
44750;SDS011;30477;48.224;11.470;2023-05-14T00:14:16;19.85;;;15.57;;
44750;SDS011;30477;48.224;11.470;2023-05-14T00:16:41;20.67;;;16.27;;
44750;SDS011;30477;48.224;11.470;2023-05-14T00:19:07;19.23;;;15.60;;
44750;SDS011;30477;48.224;11.470;2023-05-14T00:21:32;20.77;;;15.37;;
44750;SDS011;30477;48.224;11.470;2023-05-14T00:23:57;18.63;;;15.37;;
44750;SDS011;30477;48.224;11.470;2023-05-14T00:26:23;22.00;;;15.87;;
44750;SDS011;30477;48.224;11.470;2023-05-14T00:28:48;20.87;;;15.50;;
44750;SDS011;30477;48.224;11.470;2023-05-14T00:31:13;24.10;;;15.80;;
44750;SDS011;30477;48.224;11.470;2023-05-14T00:33:39;21.80;;;15.90;;
44750;SDS011;30477;48.224;11.470;2023-05-14T00:36:04;21.67;;;16.47;;
44750;SDS011;30477;48.224;11.470;2023-05-14T00:38:30;20.40;;;16.07;;
44750;SDS011;30477;48.224;11.470;2023-05-14T00:40:55;19.13;;;15.23;;
44750;SDS011;30477;48.224;11.470;2023-05-14T00:43:20;22.03;;;17.47;;
44750;SDS011;30477;48.224;11.470;2023-05-14T00:45:47;20.52;;;16.33;;
44750;SDS011;30477;48.224;11.470;2023-05-14T00:48:14;21.77;;;16.33;;
44750;SDS011;30477;48.224;11.470;2023-05-14T00:50:40;19.90;;;15.37;;
44750;SDS011;30477;48.224;11.470;2023-05-14T00:53:06;22.27;;;14.73;;
44750;SDS011;30477;48.224;11.470;2023-05-14T00:55:34;20.98;;;16.10;;
44750;SDS011;30477;48.224;11.470;2023-05-14T00:58:01;21.40;;;16.55;;
44750;SDS011;30477;48.224;11.470;2023-05-14T01:00:31;20.50;;;16.50;;
44750;SDS011;30477;48.224;11.470;2023-05-14T01:02:56;18.87;;;15.60;;
44750;SDS011;30477;48.224;11.470;2023-05-14T01:05:25;21.63;;;17.00;;
44750;SDS011;30477;48.224;11.470;2023-05-14T01:10:29;23.03;;;15.23;;
44750;SDS011;30477;48.224;11.470;2023-05-14T01:13:02;20.63;;;16.73;;
44750;SDS011;30477;48.224;11.470;2023-05-14T01:15:32;21.38;;;17.33;;
44750;SDS011;30477;48.224;11.470;2023-05-14T01:18:04;26.55;;;18.20;;
44750;SDS011;30477;48.224;11.470;2023-05-14T01:20:33;23.48;;;17.48;;
44750;SDS011;30477;48.224;11.470;2023-05-14T01:25:25;23.90;;;17.60;;
44750;SDS011;30477;48.224;11.470;2023-05-14T01:28:01;24.52;;;16.75;;
44750;SDS011;30477;48.224;11.470;2023-05-14T01:30:30;21.30;;;15.80;;
44750;SDS011;30477;48.224;11.470;2023-05-14T01:33:01;22.33;;;15.93;;
44750;SDS011;30477;48.224;11.470;2023-05-14T01:35:30;21.27;;;15.85;;
44750;SDS011;30477;48.224;11.470;2023-05-14T01:37:56;21.65;;;16.20;;
44750;SDS011;30477;48.224;11.470;2023-05-14T01:40:24;20.17;;;15.30;;
44750;SDS011;30477;48.224;11.470;2023-05-14T01:42:50;18.80;;;15.35;;
44750;SDS011;30477;48.224;11.470;2023-05-14T01:45:20;19.80;;;15.32;;
44750;SDS011;30477;48.224;11.470;2023-05-14T01:47:49;19.80;;;15.35;;
44750;SDS011;30477;48.224;11.470;2023-05-14T01:50:15;19.02;;;14.63;;
44750;SDS011;30477;48.224;11.470;2023-05-14T01:52:40;15.93;;;13.30;;
44750;SDS011;30477;48.224;11.470;2023-05-14T01:55:06;18.70;;;14.30;;
44750;SDS011;30477;48.224;11.470;2023-05-14T01:57:32;21.88;;;14.35;;
44750;SDS011;30477;48.224;11.470;2023-05-14T01:59:57;18.03;;;13.57;;
44750;SDS011;30477;48.224;11.470;2023-05-14T02:02:22;15.97;;;12.83;;
44750;SDS011;30477;48.224;11.470;2023-05-14T02:04:48;18.17;;;14.13;;
44750;SDS011;30477;48.224;11.470;2023-05-14T02:07:13;18.50;;;14.37;;
44750;SDS011;30477;48.224;11.470;2023-05-14T02:09:39;20.20;;;14.33;;
44750;SDS011;30477;48.224;11.470;2023-05-14T02:12:05;16.70;;;13.48;;
44750;SDS011;30477;48.224;11.470;2023-05-14T02:14:31;18.70;;;14.55;;
44750;SDS011;30477;48.224;11.470;2023-05-14T02:16:57;18.33;;;14.90;;
44750;SDS011;30477;48.224;11.470;2023-05-14T02:19:22;20.67;;;15.37;;
44750;SDS011;30477;48.224;11.470;2023-05-14T02:21:48;17.38;;;14.38;;
44750;SDS011;30477;48.224;11.470;2023-05-14T02:24:14;21.05;;;15.50;;
44750;SDS011;30477;48.224;11.470;2023-05-14T02:26:40;19.83;;;15.43;;
44750;SDS011;30477;48.224;11.470;2023-05-14T02:29:06;18.13;;;13.77;;
44750;SDS011;30477;48.224;11.470;2023-05-14T02:31:31;19.07;;;14.10;;
44750;SDS011;30477;48.224;11.470;2023-05-14T02:33:56;18.40;;;14.63;;
44750;SDS011;30477;48.224;11.470;2023-05-14T02:36:22;17.80;;;14.13;;
44750;SDS011;30477;48.224;11.470;2023-05-14T02:38:47;19.53;;;14.37;;
44750;SDS011;30477;48.224;11.470;2023-05-14T02:41:12;18.20;;;14.90;;
44750;SDS011;30477;48.224;11.470;2023-05-14T02:43:38;18.67;;;14.73;;
44750;SDS011;30477;48.224;11.470;2023-05-14T02:46:03;19.10;;;14.73;;
44750;SDS011;30477;48.224;11.470;2023-05-14T02:48:29;20.97;;;14.87;;
44750;SDS011;30477;48.224;11.470;2023-05-14T02:50:54;19.10;;;14.07;;
44750;SDS011;30477;48.224;11.470;2023-05-14T02:53:19;16.90;;;14.10;;
44750;SDS011;30477;48.224;11.470;2023-05-14T02:55:45;18.27;;;14.03;;
44750;SDS011;30477;48.224;11.470;2023-05-14T02:58:10;18.30;;;14.40;;
44750;SDS011;30477;48.224;11.470;2023-05-14T03:00:35;18.87;;;14.03;;
44750;SDS011;30477;48.224;11.470;2023-05-14T03:03:01;20.50;;;15.23;;
44750;SDS011;30477;48.224;11.470;2023-05-14T03:05:26;18.77;;;14.30;;
44750;SDS011;30477;48.224;11.470;2023-05-14T03:07:52;19.63;;;13.83;;
44750;SDS011;30477;48.224;11.470;2023-05-14T03:10:17;18.17;;;13.93;;
44750;SDS011;30477;48.224;11.470;2023-05-14T03:12:43;20.77;;;14.50;;
44750;SDS011;30477;48.224;11.470;2023-05-14T03:15:09;18.10;;;14.33;;
44750;SDS011;30477;48.224;11.470;2023-05-14T03:17:34;17.70;;;14.50;;
44750;SDS011;30477;48.224;11.470;2023-05-14T03:20:00;18.90;;;14.57;;
44750;SDS011;30477;48.224;11.470;2023-05-14T03:22:25;18.33;;;14.50;;
44750;SDS011;30477;48.224;11.470;2023-05-14T03:24:51;21.50;;;14.63;;
44750;SDS011;30477;48.224;11.470;2023-05-14T03:27:16;19.17;;;14.17;;
44750;SDS011;30477;48.224;11.470;2023-05-14T03:29:41;17.80;;;14.50;;
44750;SDS011;30477;48.224;11.470;2023-05-14T03:32:07;20.67;;;14.97;;
44750;SDS011;30477;48.224;11.470;2023-05-14T03:34:32;21.50;;;15.03;;
44750;SDS011;30477;48.224;11.470;2023-05-14T03:36:58;21.13;;;14.67;;
44750;SDS011;30477;48.224;11.470;2023-05-14T03:41:49;18.75;;;13.77;;
44750;SDS011;30477;48.224;11.470;2023-05-14T03:44:15;21.08;;;14.55;;
44750;SDS011;30477;48.224;11.470;2023-05-14T03:46:40;19.23;;;14.23;;
44750;SDS011;30477;48.224;11.470;2023-05-14T03:49:05;22.40;;;14.73;;
44750;SDS011;30477;48.224;11.470;2023-05-14T03:51:31;22.27;;;15.73;;
44750;SDS011;30477;48.224;11.470;2023-05-14T03:53:57;19.90;;;14.75;;
44750;SDS011;30477;48.224;11.470;2023-05-14T03:56:22;23.10;;;14.93;;
44750;SDS011;30477;48.224;11.470;2023-05-14T03:58:48;20.85;;;15.35;;
44750;SDS011;30477;48.224;11.470;2023-05-14T04:01:14;21.80;;;16.40;;
44750;SDS011;30477;48.224;11.470;2023-05-14T04:03:39;20.37;;;15.67;;
44750;SDS011;30477;48.224;11.470;2023-05-14T04:06:04;20.07;;;15.17;;
44750;SDS011;30477;48.224;11.470;2023-05-14T04:08:30;21.17;;;15.73;;
44750;SDS011;30477;48.224;11.470;2023-05-14T04:10:55;22.70;;;15.70;;
44750;SDS011;30477;48.224;11.470;2023-05-14T04:13:20;20.03;;;15.83;;
44750;SDS011;30477;48.224;11.470;2023-05-14T04:15:46;21.03;;;15.53;;
44750;SDS011;30477;48.224;11.470;2023-05-14T04:18:11;22.10;;;15.73;;
44750;SDS011;30477;48.224;11.470;2023-05-14T04:20:36;21.50;;;15.80;;
44750;SDS011;30477;48.224;11.470;2023-05-14T04:23:02;22.30;;;15.90;;
44750;SDS011;30477;48.224;11.470;2023-05-14T04:25:27;20.07;;;15.70;;
44750;SDS011;30477;48.224;11.470;2023-05-14T04:27:53;20.33;;;15.43;;
44750;SDS011;30477;48.224;11.470;2023-05-14T04:30:18;23.77;;;16.30;;
44750;SDS011;30477;48.224;11.470;2023-05-14T04:32:43;22.47;;;15.57;;
44750;SDS011;30477;48.224;11.470;2023-05-14T04:35:09;20.03;;;15.23;;
44750;SDS011;30477;48.224;11.470;2023-05-14T04:37:35;22.60;;;15.97;;
44750;SDS011;30477;48.224;11.470;2023-05-14T04:40:00;22.67;;;16.37;;
44750;SDS011;30477;48.224;11.470;2023-05-14T04:42:25;24.93;;;16.60;;
44750;SDS011;30477;48.224;11.470;2023-05-14T04:44:51;22.23;;;16.03;;
44750;SDS011;30477;48.224;11.470;2023-05-14T04:47:16;25.30;;;16.30;;
44750;SDS011;30477;48.224;11.470;2023-05-14T04:49:42;24.07;;;16.10;;
44750;SDS011;30477;48.224;11.470;2023-05-14T04:52:07;22.83;;;16.67;;
44750;SDS011;30477;48.224;11.470;2023-05-14T04:54:33;27.60;;;17.50;;
44750;SDS011;30477;48.224;11.470;2023-05-14T04:56:58;26.80;;;17.07;;
44750;SDS011;30477;48.224;11.470;2023-05-14T04:59:27;28.67;;;17.95;;
44750;SDS011;30477;48.224;11.470;2023-05-14T05:01:55;26.08;;;17.85;;
44750;SDS011;30477;48.224;11.470;2023-05-14T05:04:22;33.40;;;17.35;;
44750;SDS011;30477;48.224;11.470;2023-05-14T05:09:13;27.02;;;18.15;;
44750;SDS011;30477;48.224;11.470;2023-05-14T05:11:38;27.77;;;17.10;;
44750;SDS011;30477;48.224;11.470;2023-05-14T05:14:04;27.63;;;18.77;;
44750;SDS011;30477;48.224;11.470;2023-05-14T05:16:29;32.60;;;18.90;;
44750;SDS011;30477;48.224;11.470;2023-05-14T05:18:55;32.17;;;19.33;;
44750;SDS011;30477;48.224;11.470;2023-05-14T05:21:20;34.33;;;19.20;;
44750;SDS011;30477;48.224;11.470;2023-05-14T05:23:45;31.30;;;19.30;;
44750;SDS011;30477;48.224;11.470;2023-05-14T05:26:11;34.63;;;19.63;;
44750;SDS011;30477;48.224;11.470;2023-05-14T05:28:36;28.97;;;18.60;;
44750;SDS011;30477;48.224;11.470;2023-05-14T05:31:01;34.03;;;19.07;;
44750;SDS011;30477;48.224;11.470;2023-05-14T05:33:27;29.27;;;18.53;;
44750;SDS011;30477;48.224;11.470;2023-05-14T05:35:52;27.83;;;18.40;;
44750;SDS011;30477;48.224;11.470;2023-05-14T05:38:17;31.00;;;19.40;;
44750;SDS011;30477;48.224;11.470;2023-05-14T05:40:43;33.37;;;19.73;;
44750;SDS011;30477;48.224;11.470;2023-05-14T05:43:08;28.33;;;18.40;;
44750;SDS011;30477;48.224;11.470;2023-05-14T05:45:34;31.77;;;19.03;;
44750;SDS011;30477;48.224;11.470;2023-05-14T05:47:59;32.07;;;18.87;;
44750;SDS011;30477;48.224;11.470;2023-05-14T05:50:24;31.67;;;19.17;;
44750;SDS011;30477;48.224;11.470;2023-05-14T05:52:50;30.93;;;18.27;;
44750;SDS011;30477;48.224;11.470;2023-05-14T05:55:16;30.48;;;19.15;;
44750;SDS011;30477;48.224;11.470;2023-05-14T05:57:41;34.37;;;19.27;;
44750;SDS011;30477;48.224;11.470;2023-05-14T06:00:07;34.40;;;20.70;;
44750;SDS011;30477;48.224;11.470;2023-05-14T06:02:39;34.03;;;20.23;;
44750;SDS011;30477;48.224;11.470;2023-05-14T06:05:05;33.67;;;20.42;;
44750;SDS011;30477;48.224;11.470;2023-05-14T06:07:31;37.67;;;20.80;;
44750;SDS011;30477;48.224;11.470;2023-05-14T06:09:57;35.57;;;19.57;;
44750;SDS011;30477;48.224;11.470;2023-05-14T06:12:22;37.27;;;20.33;;
44750;SDS011;30477;48.224;11.470;2023-05-14T06:14:48;30.97;;;20.20;;
44750;SDS011;30477;48.224;11.470;2023-05-14T06:17:13;39.10;;;21.30;;
44750;SDS011;30477;48.224;11.470;2023-05-14T06:19:38;34.27;;;19.73;;
44750;SDS011;30477;48.224;11.470;2023-05-14T06:22:04;34.60;;;20.70;;
44750;SDS011;30477;48.224;11.470;2023-05-14T06:24:29;35.27;;;20.73;;
44750;SDS011;30477;48.224;11.470;2023-05-14T06:26:54;38.53;;;22.30;;
44750;SDS011;30477;48.224;11.470;2023-05-14T06:29:20;37.93;;;21.10;;
44750;SDS011;30477;48.224;11.470;2023-05-14T06:31:45;40.23;;;22.13;;
44750;SDS011;30477;48.224;11.470;2023-05-14T06:34:10;35.13;;;20.67;;
44750;SDS011;30477;48.224;11.470;2023-05-14T06:36:36;37.97;;;21.07;;
44750;SDS011;30477;48.224;11.470;2023-05-14T06:39:01;35.10;;;21.33;;
44750;SDS011;30477;48.224;11.470;2023-05-14T06:41:27;33.58;;;20.83;;
44750;SDS011;30477;48.224;11.470;2023-05-14T06:43:53;31.33;;;20.60;;
44750;SDS011;30477;48.224;11.470;2023-05-14T06:46:19;35.92;;;20.75;;
44750;SDS011;30477;48.224;11.470;2023-05-14T06:48:45;32.58;;;20.33;;
44750;SDS011;30477;48.224;11.470;2023-05-14T06:51:10;31.13;;;19.63;;
44750;SDS011;30477;48.224;11.470;2023-05-14T06:53:37;31.63;;;20.85;;
44750;SDS011;30477;48.224;11.470;2023-05-14T06:56:03;34.50;;;20.60;;
44750;SDS011;30477;48.224;11.470;2023-05-14T06:58:29;31.88;;;19.67;;
44750;SDS011;30477;48.224;11.470;2023-05-14T07:00:54;32.80;;;20.03;;
44750;SDS011;30477;48.224;11.470;2023-05-14T07:03:19;38.23;;;19.83;;
44750;SDS011;30477;48.224;11.470;2023-05-14T07:05:46;31.75;;;19.95;;
44750;SDS011;30477;48.224;11.470;2023-05-14T07:08:11;35.90;;;19.17;;
44750;SDS011;30477;48.224;11.470;2023-05-14T07:10:37;31.58;;;20.13;;
44750;SDS011;30477;48.224;11.470;2023-05-14T07:13:03;32.42;;;20.92;;
44750;SDS011;30477;48.224;11.470;2023-05-14T07:15:28;29.58;;;19.42;;
44750;SDS011;30477;48.224;11.470;2023-05-14T07:17:54;32.20;;;19.03;;
44750;SDS011;30477;48.224;11.470;2023-05-14T07:20:19;32.60;;;19.83;;
44750;SDS011;30477;48.224;11.470;2023-05-14T07:22:45;32.00;;;19.30;;
44750;SDS011;30477;48.224;11.470;2023-05-14T07:25:10;29.20;;;18.73;;
44750;SDS011;30477;48.224;11.470;2023-05-14T07:27:36;33.90;;;18.83;;
44750;SDS011;30477;48.224;11.470;2023-05-14T07:30:02;28.77;;;19.23;;
44750;SDS011;30477;48.224;11.470;2023-05-14T07:32:28;31.92;;;18.98;;
44750;SDS011;30477;48.224;11.470;2023-05-14T07:34:53;28.83;;;17.97;;
44750;SDS011;30477;48.224;11.470;2023-05-14T07:37:18;28.53;;;18.50;;
44750;SDS011;30477;48.224;11.470;2023-05-14T07:39:44;27.60;;;17.47;;
44750;SDS011;30477;48.224;11.470;2023-05-14T07:42:09;29.93;;;17.27;;
44750;SDS011;30477;48.224;11.470;2023-05-14T07:44:34;25.43;;;18.17;;
44750;SDS011;30477;48.224;11.470;2023-05-14T07:47:00;30.13;;;19.67;;
44750;SDS011;30477;48.224;11.470;2023-05-14T07:49:25;28.07;;;19.63;;
44750;SDS011;30477;48.224;11.470;2023-05-14T07:51:50;29.27;;;19.57;;
44750;SDS011;30477;48.224;11.470;2023-05-14T07:54:16;26.23;;;18.80;;
44750;SDS011;30477;48.224;11.470;2023-05-14T07:56:41;28.30;;;19.37;;
44750;SDS011;30477;48.224;11.470;2023-05-14T07:59:07;27.63;;;18.43;;
44750;SDS011;30477;48.224;11.470;2023-05-14T08:01:32;30.97;;;19.27;;
44750;SDS011;30477;48.224;11.470;2023-05-14T08:03:57;31.87;;;18.60;;
44750;SDS011;30477;48.224;11.470;2023-05-14T08:06:23;26.50;;;18.03;;
44750;SDS011;30477;48.224;11.470;2023-05-14T08:08:51;25.10;;;17.35;;
44750;SDS011;30477;48.224;11.470;2023-05-14T08:11:16;27.33;;;19.07;;
44750;SDS011;30477;48.224;11.470;2023-05-14T08:13:42;27.37;;;19.50;;
44750;SDS011;30477;48.224;11.470;2023-05-14T08:16:08;29.00;;;20.23;;
44750;SDS011;30477;48.224;11.470;2023-05-14T08:18:33;27.10;;;19.70;;
44750;SDS011;30477;48.224;11.470;2023-05-14T08:20:58;29.53;;;20.00;;
44750;SDS011;30477;48.224;11.470;2023-05-14T08:23:24;27.70;;;19.30;;
44750;SDS011;30477;48.224;11.470;2023-05-14T08:28:15;29.60;;;16.75;;
44750;SDS011;30477;48.224;11.470;2023-05-14T08:30:41;21.80;;;15.70;;
44750;SDS011;30477;48.224;11.470;2023-05-14T08:33:06;23.93;;;17.00;;
44750;SDS011;30477;48.224;11.470;2023-05-14T08:35:32;21.97;;;15.80;;
44750;SDS011;30477;48.224;11.470;2023-05-14T08:37:57;19.47;;;15.70;;
44750;SDS011;30477;48.224;11.470;2023-05-14T08:40:22;22.73;;;16.77;;
44750;SDS011;30477;48.224;11.470;2023-05-14T08:42:48;23.00;;;16.83;;
44750;SDS011;30477;48.224;11.470;2023-05-14T08:45:19;22.35;;;15.90;;
44750;SDS011;30477;48.224;11.470;2023-05-14T08:47:46;19.25;;;15.73;;
44750;SDS011;30477;48.224;11.470;2023-05-14T08:50:16;19.63;;;15.10;;
44750;SDS011;30477;48.224;11.470;2023-05-14T08:52:42;19.20;;;14.65;;
44750;SDS011;30477;48.224;11.470;2023-05-14T08:55:09;18.00;;;14.13;;
44750;SDS011;30477;48.224;11.470;2023-05-14T08:57:36;20.00;;;15.90;;
44750;SDS011;30477;48.224;11.470;2023-05-14T09:00:02;22.53;;;16.70;;
44750;SDS011;30477;48.224;11.470;2023-05-14T09:02:40;31.75;;;24.25;;
44750;SDS011;30477;48.224;11.470;2023-05-14T09:05:08;19.70;;;15.77;;
44750;SDS011;30477;48.224;11.470;2023-05-14T09:07:34;19.95;;;15.60;;
44750;SDS011;30477;48.224;11.470;2023-05-14T09:10:00;20.13;;;15.52;;
44750;SDS011;30477;48.224;11.470;2023-05-14T09:14:52;18.15;;;14.40;;
44750;SDS011;30477;48.224;11.470;2023-05-14T09:17:17;19.10;;;14.37;;
44750;SDS011;30477;48.224;11.470;2023-05-14T09:19:44;19.45;;;14.82;;
44750;SDS011;30477;48.224;11.470;2023-05-14T09:22:14;18.08;;;14.77;;
44750;SDS011;30477;48.224;11.470;2023-05-14T09:24:41;19.88;;;14.90;;
44750;SDS011;30477;48.224;11.470;2023-05-14T09:27:07;18.33;;;14.00;;
44750;SDS011;30477;48.224;11.470;2023-05-14T09:31:58;17.55;;;12.57;;
44750;SDS011;30477;48.224;11.470;2023-05-14T09:34:32;19.33;;;13.45;;
44750;SDS011;30477;48.224;11.470;2023-05-14T09:37:02;17.25;;;13.30;;
44750;SDS011;30477;48.224;11.470;2023-05-14T09:39:29;15.68;;;13.32;;
44750;SDS011;30477;48.224;11.470;2023-05-14T09:41:57;18.90;;;14.40;;
44750;SDS011;30477;48.224;11.470;2023-05-14T09:44:23;20.52;;;14.95;;
44750;SDS011;30477;48.224;11.470;2023-05-14T09:46:49;20.45;;;14.30;;
44750;SDS011;30477;48.224;11.470;2023-05-14T09:49:15;18.80;;;14.00;;
44750;SDS011;30477;48.224;11.470;2023-05-14T09:51:41;18.10;;;13.93;;
44750;SDS011;30477;48.224;11.470;2023-05-14T09:54:06;16.77;;;13.53;;
44750;SDS011;30477;48.224;11.470;2023-05-14T09:56:32;14.85;;;12.13;;
44750;SDS011;30477;48.224;11.470;2023-05-14T09:58:58;14.60;;;12.25;;
44750;SDS011;30477;48.224;11.470;2023-05-14T10:01:24;16.33;;;12.90;;
44750;SDS011;30477;48.224;11.470;2023-05-14T10:03:51;17.45;;;13.15;;
44750;SDS011;30477;48.224;11.470;2023-05-14T10:06:18;16.17;;;12.30;;
44750;SDS011;30477;48.224;11.470;2023-05-14T10:08:46;15.90;;;12.23;;
44750;SDS011;30477;48.224;11.470;2023-05-14T10:11:19;15.05;;;12.27;;
44750;SDS011;30477;48.224;11.470;2023-05-14T10:16:50;38.90;;;24.45;;
44750;SDS011;30477;48.224;11.470;2023-05-14T10:19:19;14.05;;;11.15;;
44750;SDS011;30477;48.224;11.470;2023-05-14T10:21:47;12.63;;;10.93;;
44750;SDS011;30477;48.224;11.470;2023-05-14T10:24:17;13.63;;;10.35;;
44750;SDS011;30477;48.224;11.470;2023-05-14T10:26:43;14.50;;;11.15;;
44750;SDS011;30477;48.224;11.470;2023-05-14T10:29:09;13.45;;;11.30;;
44750;SDS011;30477;48.224;11.470;2023-05-14T10:34:32;12.13;;;10.38;;
44750;SDS011;30477;48.224;11.470;2023-05-14T10:37:06;12.48;;;10.25;;
44750;SDS011;30477;48.224;11.470;2023-05-14T10:39:41;11.68;;;10.48;;
44750;SDS011;30477;48.224;11.470;2023-05-14T10:42:10;12.32;;;10.32;;
44750;SDS011;30477;48.224;11.470;2023-05-14T10:44:40;13.18;;;10.80;;
44750;SDS011;30477;48.224;11.470;2023-05-14T10:47:13;10.85;;;9.63;;
44750;SDS011;30477;48.224;11.470;2023-05-14T10:49:40;11.70;;;9.32;;
44750;SDS011;30477;48.224;11.470;2023-05-14T10:52:07;11.00;;;9.45;;
44750;SDS011;30477;48.224;11.470;2023-05-14T10:54:34;10.98;;;9.68;;
44750;SDS011;30477;48.224;11.470;2023-05-14T10:57:00;11.35;;;9.30;;
44750;SDS011;30477;48.224;11.470;2023-05-14T10:59:26;11.63;;;10.00;;
44750;SDS011;30477;48.224;11.470;2023-05-14T11:01:52;11.27;;;9.63;;
44750;SDS011;30477;48.224;11.470;2023-05-14T11:04:17;10.70;;;9.23;;
44750;SDS011;30477;48.224;11.470;2023-05-14T11:06:43;10.60;;;9.30;;
44750;SDS011;30477;48.224;11.470;2023-05-14T11:09:11;11.38;;;9.55;;
44750;SDS011;30477;48.224;11.470;2023-05-14T11:11:40;12.32;;;10.02;;
44750;SDS011;30477;48.224;11.470;2023-05-14T11:14:05;10.93;;;9.33;;
44750;SDS011;30477;48.224;11.470;2023-05-14T11:16:31;10.47;;;9.37;;
44750;SDS011;30477;48.224;11.470;2023-05-14T11:19:00;10.83;;;9.73;;
44750;SDS011;30477;48.224;11.470;2023-05-14T11:21:29;10.88;;;9.77;;
44750;SDS011;30477;48.224;11.470;2023-05-14T11:24:00;10.23;;;9.23;;
44750;SDS011;30477;48.224;11.470;2023-05-14T11:26:27;11.15;;;9.95;;
44750;SDS011;30477;48.224;11.470;2023-05-14T11:28:53;13.80;;;10.40;;
44750;SDS011;30477;48.224;11.470;2023-05-14T11:31:18;10.73;;;9.63;;
44750;SDS011;30477;48.224;11.470;2023-05-14T11:33:43;11.30;;;10.07;;
44750;SDS011;30477;48.224;11.470;2023-05-14T11:36:09;11.30;;;10.10;;
44750;SDS011;30477;48.224;11.470;2023-05-14T11:38:44;11.32;;;10.13;;
44750;SDS011;30477;48.224;11.470;2023-05-14T11:41:14;11.35;;;10.20;;
44750;SDS011;30477;48.224;11.470;2023-05-14T11:43:40;12.87;;;11.47;;
44750;SDS011;30477;48.224;11.470;2023-05-14T11:46:05;12.30;;;11.00;;
44750;SDS011;30477;48.224;11.470;2023-05-14T11:48:31;13.30;;;11.47;;
44750;SDS011;30477;48.224;11.470;2023-05-14T11:50:56;12.65;;;11.07;;
44750;SDS011;30477;48.224;11.470;2023-05-14T11:53:25;11.90;;;10.70;;
44750;SDS011;30477;48.224;11.470;2023-05-14T11:55:53;13.07;;;11.68;;
44750;SDS011;30477;48.224;11.470;2023-05-14T12:00:44;12.18;;;10.88;;
44750;SDS011;30477;48.224;11.470;2023-05-14T12:03:10;12.80;;;11.45;;
44750;SDS011;30477;48.224;11.470;2023-05-14T12:05:36;12.88;;;11.57;;
44750;SDS011;30477;48.224;11.470;2023-05-14T12:08:14;12.80;;;11.50;;
44750;SDS011;30477;48.224;11.470;2023-05-14T12:10:43;12.27;;;10.98;;
44750;SDS011;30477;48.224;11.470;2023-05-14T12:13:09;14.30;;;11.37;;
44750;SDS011;30477;48.224;11.470;2023-05-14T12:15:34;12.50;;;10.97;;
44750;SDS011;30477;48.224;11.470;2023-05-14T12:18:00;12.47;;;10.97;;
44750;SDS011;30477;48.224;11.470;2023-05-14T12:20:25;11.47;;;10.33;;
44750;SDS011;30477;48.224;11.470;2023-05-14T12:22:53;11.23;;;10.02;;
44750;SDS011;30477;48.224;11.470;2023-05-14T12:25:18;12.37;;;10.97;;
44750;SDS011;30477;48.224;11.470;2023-05-14T12:27:44;10.60;;;9.53;;
44750;SDS011;30477;48.224;11.470;2023-05-14T12:30:10;9.47;;;8.57;;
44750;SDS011;30477;48.224;11.470;2023-05-14T12:32:36;11.25;;;9.40;;
44750;SDS011;30477;48.224;11.470;2023-05-14T12:35:04;12.00;;;9.50;;
44750;SDS011;30477;48.224;11.470;2023-05-14T12:37:30;11.82;;;9.57;;
44750;SDS011;30477;48.224;11.470;2023-05-14T12:39:55;10.43;;;9.33;;
44750;SDS011;30477;48.224;11.470;2023-05-14T12:42:21;10.43;;;9.23;;
44750;SDS011;30477;48.224;11.470;2023-05-14T12:44:46;8.27;;;7.43;;
44750;SDS011;30477;48.224;11.470;2023-05-14T12:47:11;10.40;;;7.33;;
44750;SDS011;30477;48.224;11.470;2023-05-14T12:49:37;7.93;;;7.23;;
44750;SDS011;30477;48.224;11.470;2023-05-14T12:52:03;7.83;;;7.07;;
44750;SDS011;30477;48.224;11.470;2023-05-14T12:54:29;8.25;;;7.28;;
44750;SDS011;30477;48.224;11.470;2023-05-14T12:59:21;8.32;;;7.00;;
44750;SDS011;30477;48.224;11.470;2023-05-14T13:01:46;8.20;;;6.97;;
44750;SDS011;30477;48.224;11.470;2023-05-14T13:04:11;8.87;;;6.90;;
44750;SDS011;30477;48.224;11.470;2023-05-14T13:06:38;9.63;;;6.50;;
44750;SDS011;30477;48.224;11.470;2023-05-14T13:09:03;7.68;;;6.93;;
44750;SDS011;30477;48.224;11.470;2023-05-14T13:13:56;8.70;;;7.80;;
44750;SDS011;30477;48.224;11.470;2023-05-14T13:16:23;8.45;;;7.57;;
44750;SDS011;30477;48.224;11.470;2023-05-14T13:18:51;7.25;;;6.50;;
44750;SDS011;30477;48.224;11.470;2023-05-14T13:21:17;7.60;;;6.80;;
44750;SDS011;30477;48.224;11.470;2023-05-14T13:23:42;7.33;;;6.27;;
44750;SDS011;30477;48.224;11.470;2023-05-14T13:26:08;8.50;;;7.30;;
44750;SDS011;30477;48.224;11.470;2023-05-14T13:28:33;7.13;;;6.43;;
44750;SDS011;30477;48.224;11.470;2023-05-14T13:31:17;8.77;;;6.32;;
44750;SDS011;30477;48.224;11.470;2023-05-14T13:33:43;7.85;;;6.68;;
44750;SDS011;30477;48.224;11.470;2023-05-14T13:36:09;8.60;;;6.90;;
44750;SDS011;30477;48.224;11.470;2023-05-14T13:38:37;7.20;;;6.50;;
44750;SDS011;30477;48.224;11.470;2023-05-14T13:41:02;8.40;;;7.27;;
44750;SDS011;30477;48.224;11.470;2023-05-14T13:43:31;7.07;;;6.43;;
44750;SDS011;30477;48.224;11.470;2023-05-14T13:45:58;6.82;;;6.13;;
44750;SDS011;30477;48.224;11.470;2023-05-14T13:48:24;6.90;;;5.97;;
44750;SDS011;30477;48.224;11.470;2023-05-14T13:50:51;7.88;;;6.03;;
44750;SDS011;30477;48.224;11.470;2023-05-14T13:53:19;6.47;;;5.87;;
44750;SDS011;30477;48.224;11.470;2023-05-14T13:55:46;6.85;;;6.15;;
44750;SDS011;30477;48.224;11.470;2023-05-14T13:58:11;6.50;;;5.93;;
44750;SDS011;30477;48.224;11.470;2023-05-14T14:00:36;7.33;;;6.30;;
44750;SDS011;30477;48.224;11.470;2023-05-14T14:03:02;6.53;;;5.90;;
44750;SDS011;30477;48.224;11.470;2023-05-14T14:05:28;7.22;;;6.47;;
44750;SDS011;30477;48.224;11.470;2023-05-14T14:07:53;6.77;;;5.97;;
44750;SDS011;30477;48.224;11.470;2023-05-14T14:10:19;6.35;;;5.75;;
44750;SDS011;30477;48.224;11.470;2023-05-14T14:12:45;7.75;;;6.82;;
44750;SDS011;30477;48.224;11.470;2023-05-14T14:15:11;7.35;;;6.65;;
44750;SDS011;30477;48.224;11.470;2023-05-14T14:17:36;8.10;;;6.63;;
44750;SDS011;30477;48.224;11.470;2023-05-14T14:22:29;5.72;;;4.85;;
44750;SDS011;30477;48.224;11.470;2023-05-14T14:24:55;7.68;;;5.07;;
44750;SDS011;30477;48.224;11.470;2023-05-14T14:27:21;5.10;;;4.60;;
44750;SDS011;30477;48.224;11.470;2023-05-14T14:29:46;5.33;;;4.80;;
44750;SDS011;30477;48.224;11.470;2023-05-14T14:32:11;4.63;;;4.13;;
44750;SDS011;30477;48.224;11.470;2023-05-14T14:34:37;4.53;;;4.13;;
44750;SDS011;30477;48.224;11.470;2023-05-14T14:37:02;4.93;;;4.53;;
44750;SDS011;30477;48.224;11.470;2023-05-14T14:39:27;6.20;;;5.47;;
44750;SDS011;30477;48.224;11.470;2023-05-14T14:41:53;5.43;;;4.93;;